AAL598 KDCA-KCLE
Flight info
| Callsign | AAL598 |
|---|---|
| Flight time | N/A |
| Altitude | 28000 |
| Route | HORTO4 JERES J211 JST UPPRR TRYBE4 |
| Aircraft | E175/M-SDE3GILORVW/S |
Departure
| Time | 2026-05-04 21:54 |
|---|---|
| Airport | Ronald Reagan Washington National Airport (KDCA) |
Arrival
| Time | N/A |
|---|---|
| Airport | Cleveland Hopkins International Airport (KCLE) |
| Time | Latitude | Longitude | Altitude | Speed | Heading |
|---|---|---|---|---|---|
| 2026-05-04 21:41 | 38.85750 | -77.04290 | 22 ft | 0 kts | 340° |
| 2026-05-04 21:46 | 38.85746 | -77.04288 | 22 ft | 3 kts | 340° |
| 2026-05-04 21:46 | 38.85729 | -77.04280 | 24 ft | 3 kts | 340° |
| 2026-05-04 21:47 | 38.85712 | -77.04271 | 23 ft | 2 kts | 340° |
| 2026-05-04 21:47 | 38.85710 | -77.04271 | 23 ft | 0 kts | 340° |
| 2026-05-04 21:48 | 38.85711 | -77.04271 | 23 ft | 0 kts | 340° |
| 2026-05-04 21:48 | 38.85714 | -77.04272 | 23 ft | 0 kts | 347° |
| 2026-05-04 21:48 | 38.85721 | -77.04270 | 24 ft | 2 kts | 31° |
| 2026-05-04 21:49 | 38.85737 | -77.04250 | 23 ft | 5 kts | 43° |
| 2026-05-04 21:49 | 38.85773 | -77.04217 | 22 ft | 8 kts | 5° |
| 2026-05-04 21:49 | 38.85849 | -77.04244 | 22 ft | 15 kts | 343° |
| 2026-05-04 21:49 | 38.85919 | -77.04183 | 23 ft | 16 kts | 75° |
| 2026-05-04 21:50 | 38.85976 | -77.04046 | 22 ft | 18 kts | 27° |
| 2026-05-04 21:50 | 38.86033 | -77.04009 | 22 ft | 0 kts | 26° |
| 2026-05-04 21:52 | 38.86049 | -77.03999 | 22 ft | 9 kts | 26° |
| 2026-05-04 21:52 | 38.86092 | -77.03927 | 21 ft | 10 kts | 75° |
| 2026-05-04 21:52 | 38.86059 | -77.03869 | 21 ft | 9 kts | 165° |
| 2026-05-04 21:53 | 38.86038 | -77.03866 | 21 ft | 1 kts | 175° |
| 2026-05-04 21:53 | 38.85890 | -77.03854 | 24 ft | 60 kts | 175° |
| 2026-05-04 21:53 | 38.85189 | -77.03787 | 25 ft | 140 kts | 178° |
| 2026-05-04 21:53 | 38.84075 | -77.03677 | 612 ft | 167 kts | 174° |
| 2026-05-04 21:54 | 38.82854 | -77.03804 | 1497 ft | 187 kts | 196° |
| 2026-05-04 21:54 | 38.81502 | -77.03880 | 2344 ft | 211 kts | 174° |
| 2026-05-04 21:54 | 38.79848 | -77.03885 | 2222 ft | 268 kts | 194° |
| 2026-05-04 21:54 | 38.78161 | -77.05160 | 2618 ft | 288 kts | 225° |
| 2026-05-04 21:55 | 38.77200 | -77.07266 | 3165 ft | 265 kts | 252° |
| 2026-05-04 21:55 | 38.77209 | -77.09531 | 3091 ft | 258 kts | 283° |
| 2026-05-04 21:55 | 38.78174 | -77.11486 | 2982 ft | 268 kts | 313° |
| 2026-05-04 21:55 | 38.79595 | -77.13001 | 3367 ft | 256 kts | 318° |
| 2026-05-04 21:56 | 38.80845 | -77.14425 | 4075 ft | 233 kts | 307° |
| 2026-05-04 21:56 | 38.81812 | -77.16116 | 4811 ft | 238 kts | 296° |
| 2026-05-04 21:56 | 38.82604 | -77.17999 | 5542 ft | 243 kts | 299° |
| 2026-05-04 21:56 | 38.83845 | -77.19524 | 6310 ft | 253 kts | 319° |
| 2026-05-04 21:57 | 38.85307 | -77.20801 | 7093 ft | 255 kts | 322° |
| 2026-05-04 21:57 | 38.86804 | -77.22033 | 7857 ft | 256 kts | 323° |
| 2026-05-04 21:57 | 38.88307 | -77.23240 | 8640 ft | 254 kts | 323° |
| 2026-05-04 21:57 | 38.89782 | -77.24465 | 9415 ft | 250 kts | 320° |
| 2026-05-04 21:58 | 38.91163 | -77.25784 | 10160 ft | 245 kts | 318° |
| 2026-05-04 21:58 | 38.92506 | -77.27108 | 10876 ft | 242 kts | 317° |
| 2026-05-04 21:58 | 38.93823 | -77.28422 | 11618 ft | 238 kts | 317° |
| 2026-05-04 21:58 | 38.95118 | -77.29715 | 12379 ft | 234 kts | 316° |
| 2026-05-04 21:59 | 38.96395 | -77.30990 | 13150 ft | 231 kts | 316° |
| 2026-05-04 21:59 | 38.97654 | -77.32246 | 13911 ft | 227 kts | 316° |
| 2026-05-04 21:59 | 38.98920 | -77.33515 | 14432 ft | 233 kts | 316° |
| 2026-05-04 21:59 | 39.00222 | -77.34818 | 14897 ft | 242 kts | 316° |
| 2026-05-04 22:00 | 39.01589 | -77.36182 | 15282 ft | 255 kts | 317° |
| 2026-05-04 22:00 | 39.03026 | -77.37611 | 15672 ft | 267 kts | 317° |
| 2026-05-04 22:00 | 39.04524 | -77.39105 | 16080 ft | 278 kts | 317° |
| 2026-05-04 22:00 | 39.06059 | -77.40637 | 16486 ft | 289 kts | 318° |
| 2026-05-04 22:01 | 39.07678 | -77.42255 | 16899 ft | 300 kts | 318° |
| 2026-05-04 22:01 | 39.09370 | -77.43947 | 17333 ft | 319 kts | 319° |
| 2026-05-04 22:01 | 39.11189 | -77.45752 | 17777 ft | 340 kts | 318° |
| 2026-05-04 22:01 | 39.13028 | -77.47756 | 18404 ft | 352 kts | 316° |
| 2026-05-04 22:02 | 39.14872 | -77.49801 | 18965 ft | 348 kts | 316° |
| 2026-05-04 22:02 | 39.16723 | -77.51871 | 19411 ft | 356 kts | 316° |
| 2026-05-04 22:02 | 39.18611 | -77.53987 | 19867 ft | 364 kts | 316° |
| 2026-05-04 22:02 | 39.20542 | -77.56149 | 20315 ft | 370 kts | 316° |
| 2026-05-04 22:03 | 39.22505 | -77.58349 | 20778 ft | 376 kts | 316° |
| 2026-05-04 22:03 | 39.24487 | -77.60571 | 21271 ft | 378 kts | 316° |
| 2026-05-04 22:03 | 39.26473 | -77.62802 | 21784 ft | 379 kts | 316° |
| 2026-05-04 22:03 | 39.28467 | -77.65043 | 22313 ft | 381 kts | 316° |
| 2026-05-04 22:04 | 39.30446 | -77.67268 | 22836 ft | 383 kts | 316° |
| 2026-05-04 22:04 | 39.32459 | -77.69530 | 23378 ft | 385 kts | 316° |
| 2026-05-04 22:04 | 39.34486 | -77.71811 | 23842 ft | 387 kts | 316° |
| 2026-05-04 22:04 | 39.36519 | -77.74102 | 24319 ft | 389 kts | 316° |
| 2026-05-04 22:05 | 39.38568 | -77.76413 | 24816 ft | 392 kts | 316° |
| 2026-05-04 22:05 | 39.40672 | -77.78669 | 25299 ft | 394 kts | 317° |
| 2026-05-04 22:05 | 39.42698 | -77.81055 | 25788 ft | 394 kts | 316° |
| 2026-05-04 22:05 | 39.44758 | -77.83402 | 26277 ft | 394 kts | 316° |
| 2026-05-04 22:06 | 39.46819 | -77.85739 | 26783 ft | 394 kts | 317° |
| 2026-05-04 22:06 | 39.48877 | -77.88069 | 27299 ft | 393 kts | 317° |
| 2026-05-04 22:06 | 39.50930 | -77.90393 | 27768 ft | 393 kts | 317° |
| 2026-05-04 22:06 | 39.53009 | -77.92752 | 27889 ft | 402 kts | 317° |
| 2026-05-04 22:07 | 39.55136 | -77.95163 | 27949 ft | 411 kts | 317° |
| 2026-05-04 22:07 | 39.57272 | -77.97587 | 27969 ft | 414 kts | 317° |
| 2026-05-04 22:07 | 39.59443 | -78.00057 | 27965 ft | 419 kts | 317° |
| 2026-05-04 22:07 | 39.61655 | -78.02574 | 27965 ft | 428 kts | 317° |
| 2026-05-04 22:08 | 39.63920 | -78.05153 | 27988 ft | 437 kts | 317° |
| 2026-05-04 22:08 | 39.66225 | -78.07780 | 27981 ft | 445 kts | 317° |
| 2026-05-04 22:08 | 39.68543 | -78.10424 | 27965 ft | 442 kts | 317° |
| 2026-05-04 22:08 | 39.70846 | -78.13054 | 27956 ft | 441 kts | 317° |
| 2026-05-04 22:09 | 39.73147 | -78.15685 | 27953 ft | 441 kts | 317° |
| 2026-05-04 22:09 | 39.75449 | -78.18318 | 27958 ft | 441 kts | 317° |
| 2026-05-04 22:09 | 39.77750 | -78.20955 | 27963 ft | 441 kts | 317° |
| 2026-05-04 22:09 | 39.80048 | -78.23589 | 27954 ft | 441 kts | 317° |
| 2026-05-04 22:10 | 39.82347 | -78.26226 | 27960 ft | 441 kts | 317° |
| 2026-05-04 22:10 | 39.84649 | -78.28869 | 27965 ft | 441 kts | 317° |
| 2026-05-04 22:10 | 39.86944 | -78.31507 | 27972 ft | 441 kts | 317° |
| 2026-05-04 22:10 | 39.89245 | -78.34155 | 27963 ft | 440 kts | 317° |
| 2026-05-04 22:11 | 39.91540 | -78.36798 | 27958 ft | 440 kts | 317° |
| 2026-05-04 22:11 | 39.93830 | -78.39436 | 27961 ft | 440 kts | 317° |
| 2026-05-04 22:11 | 39.96122 | -78.42081 | 27973 ft | 440 kts | 317° |
| 2026-05-04 22:11 | 39.98380 | -78.44688 | 27973 ft | 440 kts | 317° |
| 2026-05-04 22:12 | 40.00669 | -78.47336 | 27959 ft | 440 kts | 317° |
| 2026-05-04 22:12 | 40.02967 | -78.49995 | 27968 ft | 440 kts | 317° |
| 2026-05-04 22:12 | 40.05257 | -78.52646 | 27964 ft | 440 kts | 317° |
| 2026-05-04 22:12 | 40.07542 | -78.55294 | 27960 ft | 440 kts | 317° |
| 2026-05-04 22:13 | 40.09829 | -78.57948 | 27957 ft | 440 kts | 317° |
| 2026-05-04 22:13 | 40.12118 | -78.60607 | 27954 ft | 440 kts | 317° |
| 2026-05-04 22:13 | 40.14405 | -78.63263 | 27953 ft | 440 kts | 317° |
| 2026-05-04 22:13 | 40.16687 | -78.65919 | 27951 ft | 440 kts | 317° |
| 2026-05-04 22:14 | 40.18973 | -78.68581 | 27946 ft | 440 kts | 317° |
| 2026-05-04 22:14 | 40.21266 | -78.71255 | 27960 ft | 442 kts | 317° |
| 2026-05-04 22:14 | 40.23558 | -78.73928 | 27967 ft | 442 kts | 317° |
| 2026-05-04 22:14 | 40.25884 | -78.76645 | 27967 ft | 442 kts | 317° |
| 2026-05-04 22:15 | 40.28114 | -78.79253 | 27970 ft | 441 kts | 317° |
| 2026-05-04 22:15 | 40.30409 | -78.81924 | 27977 ft | 441 kts | 317° |
| 2026-05-04 22:15 | 40.32678 | -78.84630 | 27971 ft | 441 kts | 315° |
| 2026-05-04 22:15 | 40.34941 | -78.87359 | 27971 ft | 441 kts | 316° |
| 2026-05-04 22:16 | 40.37196 | -78.90089 | 27974 ft | 442 kts | 316° |
| 2026-05-04 22:16 | 40.39448 | -78.92813 | 27976 ft | 439 kts | 316° |
| 2026-05-04 22:16 | 40.41691 | -78.95530 | 27963 ft | 439 kts | 316° |
| 2026-05-04 22:16 | 40.43933 | -78.98248 | 27979 ft | 439 kts | 316° |
| 2026-05-04 22:17 | 40.46158 | -79.00950 | 27955 ft | 439 kts | 316° |
| 2026-05-04 22:17 | 40.48107 | -79.03316 | 27942 ft | 439 kts | 316° |
| 2026-05-04 22:17 | 40.50115 | -79.05758 | 27943 ft | 439 kts | 316° |
| 2026-05-04 22:17 | 40.52364 | -79.08494 | 27951 ft | 442 kts | 316° |
| 2026-05-04 22:18 | 40.54619 | -79.11240 | 27939 ft | 442 kts | 316° |
| 2026-05-04 22:18 | 40.56869 | -79.13982 | 27947 ft | 441 kts | 316° |
| 2026-05-04 22:18 | 40.59119 | -79.16729 | 27946 ft | 441 kts | 316° |
| 2026-05-04 22:18 | 40.61368 | -79.19475 | 27939 ft | 441 kts | 316° |
| 2026-05-04 22:19 | 40.63615 | -79.22221 | 27949 ft | 440 kts | 316° |
| 2026-05-04 22:19 | 40.65825 | -79.24928 | 27948 ft | 440 kts | 315° |
| 2026-05-04 22:19 | 40.68064 | -79.27670 | 27942 ft | 440 kts | 315° |
| 2026-05-04 22:19 | 40.70305 | -79.30417 | 27944 ft | 440 kts | 315° |
| 2026-05-04 22:20 | 40.72550 | -79.33173 | 27946 ft | 440 kts | 315° |
| 2026-05-04 22:20 | 40.74788 | -79.35923 | 27945 ft | 440 kts | 315° |
| 2026-05-04 22:20 | 40.77026 | -79.38673 | 27945 ft | 440 kts | 315° |
| 2026-05-04 22:20 | 40.79264 | -79.41428 | 27939 ft | 440 kts | 315° |
| 2026-05-04 22:21 | 40.81500 | -79.44183 | 27948 ft | 440 kts | 315° |
| 2026-05-04 22:21 | 40.83737 | -79.46941 | 27935 ft | 440 kts | 315° |
| 2026-05-04 22:21 | 40.85971 | -79.49700 | 27940 ft | 440 kts | 315° |
| 2026-05-04 22:21 | 40.88209 | -79.52462 | 27941 ft | 439 kts | 315° |
| 2026-05-04 22:22 | 40.90434 | -79.55215 | 27923 ft | 439 kts | 315° |
| 2026-05-04 22:22 | 40.92666 | -79.57980 | 27928 ft | 439 kts | 315° |
| 2026-05-04 22:22 | 40.94334 | -79.60048 | 27937 ft | 439 kts | 315° |
| 2026-05-04 22:22 | 40.96563 | -79.62812 | 27934 ft | 439 kts | 315° |
| 2026-05-04 22:23 | 40.98791 | -79.65576 | 27920 ft | 439 kts | 315° |
| 2026-05-04 22:23 | 41.00270 | -79.67413 | 27923 ft | 439 kts | 315° |
| 2026-05-04 22:23 | 41.03246 | -79.71113 | 27932 ft | 439 kts | 315° |
| 2026-05-04 22:23 | 41.05470 | -79.73884 | 27923 ft | 439 kts | 315° |
| 2026-05-04 22:24 | 41.07697 | -79.76658 | 27914 ft | 438 kts | 315° |
| 2026-05-04 22:24 | 41.13825 | -79.84306 | 27579 ft | 419 kts | 314° |
| 2026-05-04 22:25 | 41.16062 | -79.87104 | 27340 ft | 399 kts | 314° |
| 2026-05-04 22:25 | 41.17882 | -79.89385 | 27138 ft | 383 kts | 314° |
| 2026-05-04 22:25 | 41.19782 | -79.91766 | 26919 ft | 368 kts | 314° |
| 2026-05-04 22:25 | 41.21590 | -79.94034 | 26716 ft | 360 kts | 314° |
| 2026-05-04 22:26 | 41.23415 | -79.96326 | 26535 ft | 363 kts | 314° |
| 2026-05-04 22:26 | 41.25255 | -79.98636 | 26362 ft | 364 kts | 314° |
| 2026-05-04 22:26 | 41.27094 | -80.00945 | 26138 ft | 363 kts | 314° |
| 2026-05-04 22:26 | 41.28928 | -80.03252 | 25573 ft | 361 kts | 314° |
| 2026-05-04 22:27 | 41.30742 | -80.05535 | 25026 ft | 357 kts | 314° |
| 2026-05-04 22:27 | 41.32534 | -80.07792 | 24562 ft | 351 kts | 314° |
| 2026-05-04 22:27 | 41.34298 | -80.10019 | 24184 ft | 351 kts | 314° |
| 2026-05-04 22:27 | 41.36083 | -80.12270 | 23833 ft | 356 kts | 313° |
| 2026-05-04 22:28 | 41.37878 | -80.14537 | 23478 ft | 355 kts | 313° |
| 2026-05-04 22:28 | 41.39664 | -80.16795 | 23064 ft | 353 kts | 313° |
| 2026-05-04 22:28 | 41.41439 | -80.19038 | 22635 ft | 351 kts | 313° |
| 2026-05-04 22:28 | 41.43204 | -80.21275 | 22204 ft | 349 kts | 313° |
| 2026-05-04 22:29 | 41.44956 | -80.23495 | 21767 ft | 347 kts | 313° |
| 2026-05-04 22:29 | 41.46693 | -80.25698 | 21564 ft | 343 kts | 313° |
| 2026-05-04 22:29 | 41.48393 | -80.27938 | 21463 ft | 343 kts | 306° |
| 2026-05-04 22:29 | 41.49475 | -80.30719 | 21310 ft | 338 kts | 283° |
| 2026-05-04 22:30 | 41.49601 | -80.33774 | 21137 ft | 324 kts | 266° |
| 2026-05-04 22:30 | 41.49368 | -80.36703 | 20953 ft | 312 kts | 264° |
| 2026-05-04 22:30 | 41.49121 | -80.39528 | 20752 ft | 304 kts | 265° |
| 2026-05-04 22:30 | 41.48928 | -80.42453 | 20607 ft | 327 kts | 267° |
| 2026-05-04 22:31 | 41.48805 | -80.45527 | 20429 ft | 335 kts | 268° |
| 2026-05-04 22:31 | 41.48718 | -80.48624 | 20061 ft | 332 kts | 269° |
| 2026-05-04 22:31 | 41.48777 | -80.51685 | 19697 ft | 328 kts | 273° |
| 2026-05-04 22:31 | 41.48919 | -80.54704 | 19335 ft | 325 kts | 273° |
| 2026-05-04 22:32 | 41.49080 | -80.57707 | 18977 ft | 323 kts | 274° |
| 2026-05-04 22:32 | 41.49245 | -80.60691 | 18629 ft | 322 kts | 274° |
| 2026-05-04 22:32 | 41.49407 | -80.63658 | 18268 ft | 321 kts | 273° |
| 2026-05-04 22:32 | 41.49568 | -80.66618 | 17895 ft | 319 kts | 273° |
| 2026-05-04 22:33 | 41.49726 | -80.69554 | 17492 ft | 316 kts | 273° |
| 2026-05-04 22:33 | 41.49880 | -80.72428 | 17111 ft | 313 kts | 273° |
| 2026-05-04 22:33 | 41.50035 | -80.75352 | 16722 ft | 311 kts | 273° |
| 2026-05-04 22:33 | 41.50184 | -80.78165 | 16334 ft | 305 kts | 273° |
| 2026-05-04 22:34 | 41.50283 | -80.80061 | 16065 ft | 301 kts | 273° |
| 2026-05-04 22:34 | 41.50413 | -80.82524 | 15718 ft | 297 kts | 273° |
| 2026-05-04 22:34 | 41.50556 | -80.85265 | 15330 ft | 295 kts | 273° |
| 2026-05-04 22:34 | 41.50698 | -80.87988 | 14965 ft | 294 kts | 273° |
| 2026-05-04 22:35 | 41.50838 | -80.90698 | 14606 ft | 292 kts | 273° |
| 2026-05-04 22:35 | 41.50977 | -80.93385 | 14247 ft | 290 kts | 273° |
| 2026-05-04 22:35 | 41.51113 | -80.96055 | 13885 ft | 288 kts | 273° |
| 2026-05-04 22:35 | 41.51248 | -80.98707 | 13530 ft | 286 kts | 273° |
| 2026-05-04 22:36 | 41.51383 | -81.01351 | 13126 ft | 285 kts | 273° |
| 2026-05-04 22:36 | 41.51511 | -81.03978 | 12736 ft | 284 kts | 272° |
| 2026-05-04 22:36 | 41.51560 | -81.06611 | 12333 ft | 283 kts | 268° |
| 2026-05-04 22:36 | 41.51481 | -81.09192 | 11970 ft | 282 kts | 266° |
| 2026-05-04 22:37 | 41.51380 | -81.11800 | 11585 ft | 281 kts | 266° |
| 2026-05-04 22:37 | 41.51273 | -81.14393 | 11209 ft | 279 kts | 266° |
| 2026-05-04 22:37 | 41.51163 | -81.16985 | 10697 ft | 280 kts | 266° |
| 2026-05-04 22:37 | 41.51053 | -81.19572 | 10201 ft | 279 kts | 266° |
| 2026-05-04 22:38 | 41.50947 | -81.22138 | 9890 ft | 272 kts | 266° |
| 2026-05-04 22:38 | 41.50827 | -81.24604 | 9799 ft | 261 kts | 264° |
| 2026-05-04 22:38 | 41.50633 | -81.26983 | 9762 ft | 257 kts | 263° |
| 2026-05-04 22:38 | 41.50438 | -81.29353 | 9752 ft | 256 kts | 263° |
| 2026-05-04 22:39 | 41.50273 | -81.31724 | 9683 ft | 258 kts | 264° |
| 2026-05-04 22:39 | 41.50127 | -81.34110 | 9481 ft | 258 kts | 264° |
| 2026-05-04 22:39 | 41.50000 | -81.36491 | 9281 ft | 257 kts | 265° |
| 2026-05-04 22:39 | 41.49984 | -81.38866 | 9082 ft | 256 kts | 269° |
| 2026-05-04 22:40 | 41.50027 | -81.41241 | 8893 ft | 256 kts | 270° |
| 2026-05-04 22:40 | 41.50083 | -81.43623 | 8683 ft | 257 kts | 270° |
| 2026-05-04 22:40 | 41.50144 | -81.46005 | 8449 ft | 258 kts | 269° |
| 2026-05-04 22:40 | 41.50200 | -81.48386 | 8144 ft | 254 kts | 269° |
| 2026-05-04 22:41 | 41.50255 | -81.50719 | 7838 ft | 250 kts | 269° |
| 2026-05-04 22:41 | 41.50307 | -81.53017 | 7535 ft | 246 kts | 269° |
| 2026-05-04 22:41 | 41.50361 | -81.55281 | 7240 ft | 243 kts | 269° |
| 2026-05-04 22:41 | 41.50411 | -81.57532 | 6841 ft | 243 kts | 269° |
| 2026-05-04 22:42 | 41.50460 | -81.59763 | 6461 ft | 245 kts | 269° |
| 2026-05-04 22:42 | 41.50511 | -81.61986 | 6072 ft | 236 kts | 268° |
| 2026-05-04 22:42 | 41.50504 | -81.64184 | 5651 ft | 237 kts | 263° |
| 2026-05-04 22:42 | 41.50379 | -81.65988 | 5343 ft | 237 kts | 261° |
| 2026-05-04 22:43 | 41.50220 | -81.68236 | 4974 ft | 238 kts | 262° |
| 2026-05-04 22:43 | 41.50009 | -81.70425 | 4616 ft | 237 kts | 254° |
| 2026-05-04 22:43 | 41.49336 | -81.72379 | 4227 ft | 226 kts | 234° |
| 2026-05-04 22:43 | 41.48367 | -81.73937 | 3797 ft | 212 kts | 231° |
| 2026-05-04 22:44 | 41.47485 | -81.75413 | 3524 ft | 196 kts | 232° |
| 2026-05-04 22:44 | 41.46661 | -81.76800 | 3096 ft | 181 kts | 230° |
| 2026-05-04 22:44 | 41.45952 | -81.77997 | 2879 ft | 153 kts | 230° |
| 2026-05-04 22:44 | 41.45279 | -81.79056 | 2527 ft | 143 kts | 227° |
| 2026-05-04 22:45 | 41.44662 | -81.80015 | 2300 ft | 129 kts | 227° |
| 2026-05-04 22:45 | 41.43459 | -81.81675 | 1587 ft | 124 kts | 208° |